createdAt,value
2019-02-22T00:02:53.582Z,23.13
2019-02-22T00:07:59.140Z,22.23
2019-02-22T00:13:04.593Z,18.73
2019-02-22T00:18:10.071Z,22.17
2019-02-22T00:23:16.211Z,18.53
2019-02-22T00:28:22.005Z,18.10
2019-02-22T00:33:27.437Z,19.67
2019-02-22T00:38:32.895Z,15.87
2019-02-22T00:43:38.696Z,16.43
2019-02-22T00:48:44.137Z,12.10
2019-02-22T00:53:49.612Z,13.87
2019-02-22T00:58:55.082Z,17.20
2019-02-22T01:04:00.560Z,20.67
2019-02-22T01:09:06.311Z,15.97
2019-02-22T01:14:12.135Z,14.27
2019-02-22T01:19:17.567Z,14.30
2019-02-22T01:24:23.198Z,15.97
2019-02-22T01:29:29.001Z,12.60
2019-02-22T01:34:34.462Z,11.30
2019-02-22T01:39:39.931Z,13.60
2019-02-22T01:44:45.730Z,13.63
2019-02-22T01:49:51.190Z,8.70
2019-02-22T01:54:56.631Z,8.83
2019-02-22T02:00:02.131Z,10.20
2019-02-22T02:05:08.007Z,9.53
2019-02-22T02:10:13.836Z,8.30
2019-02-22T02:15:19.610Z,6.47
2019-02-22T02:20:25.092Z,6.23
2019-02-22T02:25:30.937Z,5.00
2019-02-22T02:30:36.710Z,5.57
2019-02-22T02:35:42.143Z,4.83
2019-02-22T02:40:47.586Z,4.17
2019-02-22T02:45:53.055Z,3.90
2019-02-22T02:50:58.496Z,3.70
2019-02-22T02:56:04.636Z,3.23
2019-02-22T03:01:10.863Z,2.80
2019-02-22T03:06:21.096Z,2.30
2019-02-22T03:11:27.454Z,2.60
2019-02-22T03:16:32.910Z,4.17
2019-02-22T03:21:38.340Z,2.20
2019-02-22T03:26:44.216Z,2.03
2019-02-22T03:31:49.662Z,2.47
2019-02-22T03:36:55.104Z,2.77
2019-02-22T03:42:00.932Z,2.70
2019-02-22T03:47:06.698Z,4.00
2019-02-22T03:52:24.424Z,6.33
2019-02-22T03:57:30.548Z,8.83
2019-02-22T04:02:35.986Z,9.00
2019-02-22T04:07:41.495Z,9.60
2019-02-22T04:12:47.284Z,11.57
2019-02-22T04:17:52.767Z,9.63
2019-02-22T04:22:58.203Z,10.93
2019-02-22T04:28:04.450Z,14.43
2019-02-22T04:33:09.948Z,15.13
2019-02-22T04:38:22.115Z,14.00
2019-02-22T04:43:27.923Z,22.00
2019-02-22T04:48:33.388Z,24.53
2019-02-22T04:53:38.850Z,24.60
2019-02-22T04:58:44.288Z,34.10
2019-02-22T05:03:49.768Z,39.83
2019-02-22T05:08:55.242Z,39.67
2019-02-22T05:14:01.041Z,38.80
2019-02-22T05:19:06.810Z,38.47
2019-02-22T05:24:12.262Z,36.83
2019-02-22T05:29:17.713Z,33.20
2019-02-22T05:34:23.215Z,28.13
2019-02-22T05:39:28.687Z,29.37
2019-02-22T05:44:34.151Z,10.83
2019-02-22T05:49:39.995Z,6.10
2019-02-22T05:54:45.452Z,6.93
2019-02-22T05:59:51.017Z,6.80
2019-02-22T06:04:56.766Z,6.37
2019-02-22T06:10:02.303Z,7.77
2019-02-22T06:15:07.779Z,9.10
2019-02-22T06:20:13.271Z,5.30
2019-02-22T06:25:18.716Z,4.83
2019-02-22T06:30:24.134Z,5.83
2019-02-22T06:35:29.571Z,5.47
2019-02-22T06:40:41.288Z,4.53
2019-02-22T06:45:47.099Z,5.13
2019-02-22T06:50:52.530Z,5.57
2019-02-22T06:55:57.942Z,3.67
2019-02-22T07:01:03.480Z,3.80
2019-02-22T07:06:09.014Z,2.80
2019-02-22T07:11:22.506Z,2.70
2019-02-22T07:16:28.328Z,3.13
2019-02-22T07:21:49.234Z,3.17
2019-02-22T07:26:39.675Z,3.33
2019-02-22T07:31:45.123Z,3.83
2019-02-22T07:36:50.556Z,2.87
2019-02-22T07:41:56.354Z,2.40
2019-02-22T07:47:02.146Z,2.97
2019-02-22T07:52:08.004Z,4.50
2019-02-22T07:57:13.485Z,1.93
2019-02-22T08:02:19.290Z,3.07
2019-02-22T08:07:24.723Z,2.20
2019-02-22T08:12:30.167Z,4.83
2019-02-22T08:17:36.019Z,2.73
2019-02-22T08:22:41.835Z,1.70
2019-02-22T08:27:53.943Z,1.97
2019-02-22T08:32:53.075Z,3.30
2019-02-22T08:37:58.518Z,2.90
2019-02-22T08:43:04.401Z,2.57
2019-02-22T08:48:09.978Z,3.97
2019-02-22T08:53:15.833Z,3.37
2019-02-22T08:58:21.640Z,1.80
2019-02-22T09:03:28.065Z,2.13
2019-02-22T09:08:35.356Z,1.70
2019-02-22T09:13:43.777Z,2.03
2019-02-22T09:18:46.463Z,1.57
2019-02-22T09:23:52.346Z,2.33
2019-02-22T09:28:58.850Z,1.67
2019-02-22T09:34:04.399Z,2.50
2019-02-22T09:39:10.314Z,5.93
2019-02-22T09:44:15.759Z,1.57
2019-02-22T09:49:21.191Z,2.33
2019-02-22T09:54:26.650Z,1.90
2019-02-22T09:59:32.105Z,3.27
2019-02-22T10:04:37.564Z,2.70
2019-02-22T10:09:43.336Z,4.00
2019-02-22T10:14:48.947Z,4.40
2019-02-22T10:19:55.370Z,2.10
2019-02-22T10:25:00.798Z,2.97
2019-02-22T10:30:13.427Z,1.90
2019-02-22T10:35:19.112Z,6.53
2019-02-22T10:40:24.554Z,2.67
2019-02-22T10:45:30.016Z,2.53
2019-02-22T10:50:35.496Z,6.43
2019-02-22T10:55:41.290Z,3.57
2019-02-22T11:00:47.407Z,2.40
2019-02-22T11:05:52.944Z,3.30
2019-02-22T11:10:58.470Z,3.80
2019-02-22T11:16:03.990Z,2.80
2019-02-22T11:21:09.532Z,3.33
2019-02-22T11:26:15.416Z,4.47
2019-02-22T11:31:21.269Z,4.07
2019-02-22T11:36:26.922Z,3.73
2019-02-22T11:41:32.362Z,1.77
2019-02-22T11:46:37.802Z,2.37
2019-02-22T11:51:43.238Z,1.50
2019-02-22T11:56:48.716Z,3.40
2019-02-22T12:01:54.298Z,1.77
2019-02-22T12:06:59.773Z,2.60
2019-02-22T12:12:05.571Z,1.90
2019-02-22T12:17:11.095Z,3.60
2019-02-22T12:22:16.963Z,3.10
2019-02-22T12:27:22.784Z,2.63
2019-02-22T12:32:28.563Z,3.03
2019-02-22T12:37:34.041Z,3.10
2019-02-22T12:42:39.833Z,4.20
2019-02-22T12:47:45.276Z,2.00
2019-02-22T12:52:50.736Z,2.33
2019-02-22T12:57:56.198Z,3.90
2019-02-22T13:03:03.194Z,3.53
2019-02-22T13:08:08.699Z,3.63
2019-02-22T13:13:14.548Z,3.97
2019-02-22T13:18:19.991Z,2.33
2019-02-22T13:23:25.426Z,2.27
2019-02-22T13:28:30.901Z,3.23
2019-02-22T13:33:36.687Z,2.33
2019-02-22T13:54:53.747Z,5.77
2019-02-22T13:59:58.967Z,5.60
2019-02-22T14:05:04.766Z,2.53
2019-02-22T14:10:10.069Z,2.70
2019-02-22T14:15:18.054Z,3.90
2019-02-22T14:20:21.648Z,5.23
2019-02-22T14:25:27.079Z,3.07
2019-02-22T14:30:32.887Z,2.93
2019-02-22T14:35:38.771Z,2.63
2019-02-22T14:40:44.869Z,2.73
2019-02-22T14:45:53.054Z,3.40
2019-02-22T14:50:55.898Z,5.37
2019-02-22T14:56:01.654Z,4.03
2019-02-22T15:01:07.075Z,4.97
2019-02-22T15:06:12.819Z,8.13
2019-02-22T15:11:18.893Z,4.53
2019-02-22T15:16:28.935Z,2.70
2019-02-22T15:21:34.731Z,3.97
2019-02-22T15:26:40.123Z,3.37
2019-02-22T15:31:45.879Z,4.27
2019-02-22T15:36:51.298Z,4.13
2019-02-22T15:41:56.878Z,2.90
2019-02-22T15:47:11.382Z,2.27
2019-02-22T15:52:10.276Z,4.70
2019-02-22T15:57:13.931Z,3.20
2019-02-22T16:02:19.366Z,3.93
2019-02-22T16:07:25.120Z,2.97
2019-02-22T16:12:30.531Z,3.77
2019-02-22T16:17:35.948Z,4.40
2019-02-22T16:22:41.739Z,2.93
2019-02-22T16:27:48.420Z,4.50
2019-02-22T16:32:54.077Z,3.70
2019-02-22T16:37:59.500Z,2.50
2019-02-22T16:43:05.582Z,2.97
2019-02-22T16:48:10.990Z,5.20
2019-02-22T16:53:16.399Z,2.73
2019-02-22T16:58:21.806Z,3.07
2019-02-22T17:03:27.254Z,4.07
2019-02-22T17:08:32.649Z,7.80
2019-02-22T17:13:38.076Z,3.53
2019-02-22T17:18:43.482Z,7.60
2019-02-22T17:23:48.898Z,7.37
2019-02-22T17:28:54.765Z,5.80
2019-02-22T17:34:00.255Z,3.43
2019-02-22T17:39:07.058Z,5.47
2019-02-22T17:44:12.902Z,3.60
2019-02-22T17:49:18.362Z,7.53
2019-02-22T17:54:23.842Z,26.60
2019-02-22T17:59:29.331Z,18.77
2019-02-22T18:04:34.819Z,14.27
2019-02-22T18:09:40.307Z,15.53
2019-02-22T18:14:45.730Z,13.83
2019-02-22T18:19:51.147Z,15.53
2019-02-22T18:24:56.631Z,18.73
2019-02-22T18:30:02.047Z,21.43
2019-02-22T18:35:08.795Z,18.10
2019-02-22T18:40:14.443Z,18.43
2019-02-22T18:45:19.955Z,12.27
2019-02-22T18:50:25.866Z,14.30
2019-02-22T18:55:31.311Z,12.30
2019-02-22T19:00:37.539Z,15.30
2019-02-22T19:05:43.257Z,11.00
2019-02-22T19:10:48.796Z,8.63
2019-02-22T19:15:54.314Z,9.87
2019-02-22T19:20:59.739Z,9.77
2019-02-22T19:26:05.530Z,14.07
2019-02-22T19:31:11.054Z,14.90
2019-02-22T19:36:16.491Z,11.57
2019-02-22T19:41:22.327Z,15.10
2019-02-22T19:46:27.771Z,18.33
2019-02-22T19:51:33.579Z,24.30
2019-02-22T19:56:39.051Z,20.37
2019-02-22T20:01:44.577Z,15.17
2019-02-22T20:06:50.129Z,12.47
2019-02-22T20:11:55.632Z,10.57
2019-02-22T20:17:01.099Z,8.97
2019-02-22T20:22:07.249Z,14.97
2019-02-22T20:27:12.695Z,12.23
2019-02-22T20:32:18.151Z,8.37
2019-02-22T20:37:23.678Z,8.40
2019-02-22T20:42:29.078Z,7.83
2019-02-22T20:47:34.529Z,9.87
2019-02-22T20:52:40.930Z,15.17
2019-02-22T20:57:46.422Z,8.27
2019-02-22T21:02:52.570Z,9.83
2019-02-22T21:07:58.017Z,10.23
2019-02-22T21:13:03.529Z,8.83
2019-02-22T21:18:16.201Z,9.70
2019-02-22T21:23:15.159Z,9.60
2019-02-22T21:28:20.603Z,7.57
2019-02-22T21:33:26.044Z,8.07
2019-02-22T21:38:31.487Z,10.90
2019-02-22T21:43:37.274Z,7.33
2019-02-22T21:48:43.246Z,13.03
2019-02-22T21:53:49.011Z,10.63
2019-02-22T21:58:54.618Z,8.93
2019-02-22T22:04:00.083Z,9.67
2019-02-22T22:09:06.048Z,11.40
2019-02-22T22:14:11.802Z,7.87
2019-02-22T22:19:17.404Z,12.30
2019-02-22T22:24:22.945Z,9.73
2019-02-22T22:29:28.667Z,8.00
2019-02-22T22:34:40.479Z,9.83
2019-02-22T22:39:45.923Z,8.00
2019-02-22T22:44:51.382Z,8.87
2019-02-22T22:49:57.263Z,8.00
2019-02-22T22:55:02.787Z,6.60
2019-02-22T23:00:20.612Z,10.47
2019-02-22T23:05:26.065Z,6.37
2019-02-22T23:10:31.523Z,9.00
2019-02-22T23:15:37.193Z,11.20
2019-02-22T23:20:42.979Z,7.30
2019-02-22T23:25:48.740Z,8.40
2019-02-22T23:30:54.247Z,8.20
2019-02-22T23:36:00.325Z,13.50
2019-02-22T23:41:05.186Z,7.47
2019-02-22T23:46:10.703Z,8.37
2019-02-22T23:51:16.132Z,6.63
2019-02-22T23:56:22.256Z,8.17
